Posse, Brazil
Current Conditions -  °F | °C
As of 7:00 PM on Friday 24 Oct 2014 (Local Time) from SBBR Reporting Station
Broken Clouds Broken Clouds  
Wind Chill: 82°   Ceiling: 10000
Heat Index: 82°   Visibility: 6mi
Dew Point: 57°   Wind: 6mph
Humidity: 42%   Direction: 320°NW
Pressure: 29.97"   Gusts: NA
Location:  14.09°S, 46.37°W
Report Text: SBBR 242100Z 32005KT 9999 FEW040 BKN100 28/14 Q1015
Loading
Personal Weather Stations






























Interactive Weather Map
Tropical Storm Tracking
New forecast layout! Learn more

10-Day Weather Forecast

Advertisements
Track Severe Weather on mobile